createdAt,value
2022-07-25T00:00:42.963Z,61.66
2022-07-25T00:03:10.955Z,62.19
2022-07-25T00:05:38.182Z,62.13
2022-07-25T00:08:05.517Z,62.50
2022-07-25T00:10:32.546Z,63.14
2022-07-25T00:12:59.558Z,62.92
2022-07-25T00:15:26.501Z,62.69
2022-07-25T00:17:53.550Z,63.38
2022-07-25T00:20:20.579Z,63.14
2022-07-25T00:22:47.540Z,63.06
2022-07-25T00:25:14.532Z,63.18
2022-07-25T00:27:41.493Z,63.54
2022-07-25T00:30:09.209Z,63.05
2022-07-25T00:32:36.203Z,63.22
2022-07-25T00:35:03.391Z,64.38
2022-07-25T00:37:30.600Z,63.97
2022-07-25T00:39:57.610Z,64.21
2022-07-25T00:42:24.637Z,64.40
2022-07-25T00:44:52.366Z,64.52
2022-07-25T00:47:19.429Z,64.65
2022-07-25T00:49:46.628Z,64.61
2022-07-25T00:52:14.317Z,64.84
2022-07-25T00:54:41.400Z,64.83
2022-07-25T00:57:08.363Z,65.06
2022-07-25T00:59:35.304Z,65.17
2022-07-25T01:02:03.789Z,65.34
2022-07-25T01:04:31.386Z,65.33
2022-07-25T01:06:58.701Z,65.32
2022-07-25T01:09:26.603Z,65.23
2022-07-25T01:11:53.593Z,65.45
2022-07-25T01:14:22.110Z,65.32
2022-07-25T01:16:49.091Z,65.88
2022-07-25T01:19:17.598Z,66.16
2022-07-25T01:21:44.601Z,65.74
2022-07-25T01:24:12.558Z,66.00
2022-07-25T01:26:40.087Z,66.11
2022-07-25T01:29:07.178Z,66.56
2022-07-25T01:31:34.607Z,66.52
2022-07-25T01:34:01.697Z,66.53
2022-07-25T01:36:28.608Z,66.13
2022-07-25T01:38:55.604Z,66.97
2022-07-25T01:41:22.939Z,66.83
2022-07-25T01:43:50.146Z,67.00
2022-07-25T01:46:17.321Z,66.69
2022-07-25T01:48:44.499Z,67.11
2022-07-25T01:51:11.640Z,67.21
2022-07-25T01:53:38.719Z,67.23
2022-07-25T01:56:06.878Z,67.52
2022-07-25T01:58:36.032Z,67.92
2022-07-25T02:01:03.076Z,67.53
2022-07-25T02:03:30.081Z,68.05
2022-07-25T02:06:02.832Z,67.61
2022-07-25T02:08:30.471Z,67.50
2022-07-25T02:10:58.484Z,67.22
2022-07-25T02:13:25.901Z,67.83
2022-07-25T02:15:52.846Z,67.22
2022-07-25T02:18:19.919Z,67.59
2022-07-25T02:20:46.902Z,67.70
2022-07-25T02:23:13.911Z,68.10
2022-07-25T02:25:41.088Z,68.26
2022-07-25T02:28:08.044Z,67.83
2022-07-25T02:30:38.328Z,67.62
2022-07-25T02:33:05.697Z,67.91
2022-07-25T02:35:32.877Z,67.78
2022-07-25T02:37:59.887Z,67.93
2022-07-25T02:40:27.083Z,68.21
2022-07-25T02:42:54.060Z,68.17
2022-07-25T02:45:21.239Z,68.16
2022-07-25T02:47:48.270Z,68.16
2022-07-25T02:50:15.306Z,67.70
2022-07-25T02:52:43.327Z,67.39
2022-07-25T02:55:11.621Z,67.27
2022-07-25T02:57:38.757Z,67.37
2022-07-25T03:00:07.036Z,66.99
2022-07-25T03:02:34.439Z,67.44
2022-07-25T03:05:01.500Z,67.15
2022-07-25T03:07:30.390Z,67.48
2022-07-25T03:09:57.382Z,66.45
2022-07-25T03:12:24.366Z,66.17
2022-07-25T03:14:51.424Z,67.18
2022-07-25T03:17:18.470Z,65.54
2022-07-25T03:19:45.555Z,66.37
2022-07-25T03:22:12.559Z,65.65
2022-07-25T03:24:39.681Z,64.70
2022-07-25T03:27:06.688Z,65.25
2022-07-25T03:29:33.962Z,65.01
2022-07-25T03:32:01.044Z,65.66
2022-07-25T03:34:28.309Z,64.47
2022-07-25T03:36:55.376Z,64.31
2022-07-25T03:39:22.392Z,64.91
2022-07-25T03:41:49.344Z,64.45
2022-07-25T03:44:16.565Z,64.10
2022-07-25T03:46:43.505Z,63.33
2022-07-25T03:49:10.541Z,63.56
2022-07-25T03:51:37.933Z,63.42
2022-07-25T03:54:06.450Z,63.21
2022-07-25T03:56:37.109Z,63.64
2022-07-25T03:59:11.456Z,63.10
2022-07-25T04:01:39.213Z,63.08
2022-07-25T04:04:07.260Z,63.15
2022-07-25T04:06:34.557Z,62.90
2022-07-25T04:09:02.249Z,63.97
2022-07-25T04:11:30.960Z,63.56
2022-07-25T04:13:58.874Z,63.13
2022-07-25T04:16:27.815Z,63.32
2022-07-25T04:18:56.220Z,63.44
2022-07-25T04:21:24.568Z,62.93
2022-07-25T04:23:51.598Z,62.29
2022-07-25T04:26:19.441Z,61.48
2022-07-25T04:28:46.593Z,61.93
2022-07-25T04:31:14.018Z,61.73
2022-07-25T04:33:41.313Z,61.32
2022-07-25T04:36:09.078Z,61.52
2022-07-25T04:38:36.292Z,60.98
2022-07-25T04:41:04.370Z,60.48
2022-07-25T04:43:31.599Z,60.70
2022-07-25T04:45:58.797Z,61.87
2022-07-25T04:48:25.896Z,60.98
2022-07-25T04:50:53.054Z,60.36
2022-07-25T04:53:20.026Z,60.15
2022-07-25T04:55:47.068Z,59.98
2022-07-25T04:58:14.058Z,59.59
2022-07-25T05:00:41.224Z,60.31
2022-07-25T05:03:08.249Z,60.44
2022-07-25T05:05:35.227Z,59.95
2022-07-25T05:08:02.334Z,60.08
2022-07-25T05:10:30.076Z,61.07
2022-07-25T05:12:57.150Z,60.54
2022-07-25T05:15:24.385Z,59.90
2022-07-25T05:17:51.608Z,59.12
2022-07-25T05:20:19.020Z,60.16
2022-07-25T05:22:46.019Z,58.23
2022-07-25T05:25:13.075Z,57.92
2022-07-25T05:27:41.148Z,58.57
2022-07-25T05:30:10.145Z,58.81
2022-07-25T05:32:37.825Z,57.40
2022-07-25T05:35:08.087Z,57.82
2022-07-25T05:37:36.479Z,58.66
2022-07-25T05:40:05.094Z,58.49
2022-07-25T05:42:32.027Z,58.54
2022-07-25T05:44:59.051Z,57.55
2022-07-25T05:47:26.015Z,57.24
2022-07-25T05:49:52.968Z,56.86
2022-07-25T05:52:19.968Z,55.91
2022-07-25T05:54:46.963Z,56.05
2022-07-25T05:57:13.983Z,56.26
2022-07-25T05:59:41.059Z,55.03
2022-07-25T06:02:08.403Z,56.55
2022-07-25T06:04:35.526Z,56.06
2022-07-25T06:07:02.738Z,55.62
2022-07-25T06:09:32.006Z,55.43
2022-07-25T06:12:01.085Z,55.03
2022-07-25T06:14:29.749Z,54.48
2022-07-25T06:16:57.294Z,54.18
2022-07-25T06:19:24.458Z,54.23
2022-07-25T06:21:51.531Z,54.01
2022-07-25T06:24:18.702Z,54.08
2022-07-25T06:26:45.683Z,54.42
2022-07-25T06:29:12.787Z,54.12
2022-07-25T06:31:40.087Z,51.99
2022-07-25T06:34:07.599Z,51.85
2022-07-25T06:36:35.010Z,52.12
2022-07-25T06:39:02.541Z,52.12
2022-07-25T06:41:29.712Z,50.91
2022-07-25T06:43:56.719Z,50.32
2022-07-25T06:46:23.845Z,49.94
2022-07-25T06:48:50.982Z,50.00
2022-07-25T06:51:17.998Z,50.04
2022-07-25T06:53:44.937Z,50.96
2022-07-25T06:56:17.197Z,48.26
2022-07-25T06:58:45.075Z,48.17
2022-07-25T07:01:12.513Z,47.32
2022-07-25T07:03:40.440Z,47.83
2022-07-25T07:06:10.827Z,48.88
2022-07-25T07:08:38.253Z,49.03
2022-07-25T07:11:06.230Z,47.09
2022-07-25T07:13:34.215Z,47.88
2022-07-25T07:16:01.301Z,48.13
2022-07-25T07:18:28.489Z,48.17
2022-07-25T07:20:55.496Z,49.34
2022-07-25T07:23:22.475Z,49.56
2022-07-25T07:25:51.727Z,50.08
2022-07-25T07:28:19.206Z,49.15
2022-07-25T07:33:33.673Z,48.39
2022-07-25T07:36:02.355Z,49.20
2022-07-25T07:38:29.376Z,51.04
2022-07-25T07:40:56.353Z,50.66
2022-07-25T07:43:29.190Z,51.08
2022-07-25T07:45:57.010Z,51.01
2022-07-25T07:48:24.064Z,51.80
2022-07-25T07:50:51.289Z,52.24
2022-07-25T07:53:18.275Z,52.29
2022-07-25T07:55:45.538Z,52.38
2022-07-25T07:58:17.395Z,51.97
2022-07-25T08:00:46.165Z,50.78
2022-07-25T08:03:13.802Z,49.53
2022-07-25T08:05:43.688Z,50.49
2022-07-25T08:08:13.006Z,49.92
2022-07-25T08:10:42.160Z,50.57
2022-07-25T08:13:21.055Z,50.36
2022-07-25T08:15:54.663Z,50.29
2022-07-25T08:18:21.960Z,49.65
2022-07-25T08:20:50.158Z,50.60
2022-07-25T08:23:17.819Z,48.32
2022-07-25T08:25:45.774Z,48.29
2022-07-25T08:28:13.749Z,49.15
2022-07-25T08:30:42.335Z,49.03
2022-07-25T08:33:13.421Z,47.96
2022-07-25T08:35:45.547Z,47.20
2022-07-25T08:38:12.512Z,48.50
2022-07-25T08:40:39.704Z,48.25
2022-07-25T08:43:09.090Z,47.94
2022-07-25T08:45:37.082Z,47.95
2022-07-25T08:48:04.376Z,48.33
2022-07-25T08:50:31.420Z,47.53
2022-07-25T08:53:31.010Z,47.78
2022-07-25T08:55:46.828Z,47.24
2022-07-25T08:58:15.567Z,46.59
2022-07-25T09:00:42.864Z,47.74
2022-07-25T09:03:10.420Z,49.16
2022-07-25T09:05:38.634Z,47.53
2022-07-25T09:08:19.884Z,47.70
2022-07-25T09:10:49.872Z,48.04
2022-07-25T09:13:17.743Z,46.76
2022-07-25T09:15:53.921Z,46.75
2022-07-25T09:18:26.802Z,48.42
2022-07-25T09:20:59.183Z,48.66
2022-07-25T09:23:38.362Z,49.86
2022-07-25T09:26:08.343Z,49.42
2022-07-25T09:28:43.696Z,49.81
2022-07-25T09:31:11.589Z,50.04
2022-07-25T09:33:48.027Z,49.35
2022-07-25T09:36:15.215Z,48.71
2022-07-25T09:38:53.030Z,50.38
2022-07-25T09:41:20.165Z,51.98
2022-07-25T09:43:47.766Z,50.62
2022-07-25T09:46:14.908Z,49.61
2022-07-25T09:48:45.323Z,49.35
2022-07-25T09:51:12.592Z,49.24
2022-07-25T09:53:40.890Z,50.23
2022-07-25T09:56:08.802Z,48.92
2022-07-25T09:58:35.804Z,51.93
2022-07-25T10:01:07.529Z,51.49
2022-07-25T10:04:15.190Z,49.68
2022-07-25T10:07:06.422Z,48.95
2022-07-25T10:09:33.807Z,48.50
2022-07-25T10:12:06.180Z,49.60
2022-07-25T10:14:34.102Z,47.03
2022-07-25T10:17:02.089Z,46.75
2022-07-25T10:19:54.286Z,47.21
2022-07-25T10:22:56.261Z,48.28
2022-07-25T10:25:24.216Z,47.76
2022-07-25T10:28:00.122Z,47.55
2022-07-25T10:30:34.212Z,47.39
2022-07-25T10:33:21.614Z,46.20
2022-07-25T10:35:48.665Z,46.11
2022-07-25T10:38:25.314Z,46.59
2022-07-25T10:40:52.825Z,47.36
2022-07-25T10:43:25.642Z,46.67
2022-07-25T10:45:54.291Z,45.78
2022-07-25T10:48:23.691Z,45.86
2022-07-25T10:50:59.916Z,45.80
2022-07-25T10:53:48.504Z,46.32
2022-07-25T10:56:20.765Z,46.23
2022-07-25T10:59:01.716Z,45.71
2022-07-25T11:01:33.654Z,46.05
2022-07-25T11:04:06.818Z,47.64
2022-07-25T11:06:35.322Z,47.51
2022-07-25T11:09:18.066Z,47.00
2022-07-25T11:11:48.826Z,46.73
2022-07-25T11:14:31.333Z,47.54
2022-07-25T11:17:09.439Z,47.47
2022-07-25T11:19:36.538Z,47.30
2022-07-25T11:22:06.449Z,44.24
2022-07-25T11:24:36.998Z,44.66
2022-07-25T11:27:09.730Z,45.29
2022-07-25T11:29:39.365Z,46.58
2022-07-25T11:32:10.878Z,46.70
2022-07-25T11:34:54.023Z,45.03
2022-07-25T11:37:21.849Z,46.22
2022-07-25T11:39:49.520Z,44.26
2022-07-25T11:42:18.945Z,44.36
2022-07-25T11:44:51.644Z,43.94
2022-07-25T11:47:30.964Z,44.49
2022-07-25T11:50:04.223Z,45.11
2022-07-25T11:52:32.782Z,42.42
2022-07-25T11:55:02.517Z,43.32
2022-07-25T11:57:33.668Z,44.20
2022-07-25T12:00:02.859Z,42.89
2022-07-25T12:02:37.171Z,44.10
2022-07-25T12:05:09.338Z,43.90
2022-07-25T12:07:48.770Z,44.35
2022-07-25T12:10:18.582Z,44.67
2022-07-25T12:12:51.338Z,44.05
2022-07-25T12:15:24.513Z,44.35
2022-07-25T12:17:52.795Z,44.12
2022-07-25T12:20:26.029Z,44.13
2022-07-25T12:22:58.190Z,44.39
2022-07-25T12:25:30.474Z,44.46
2022-07-25T12:28:00.254Z,45.91
2022-07-25T12:30:28.771Z,43.96
2022-07-25T12:32:56.670Z,43.10
2022-07-25T12:35:24.075Z,45.52
2022-07-25T12:37:51.949Z,45.30
2022-07-25T12:40:19.843Z,44.67
2022-07-25T12:42:47.535Z,44.81
2022-07-25T12:45:15.793Z,45.07
2022-07-25T12:47:44.222Z,44.59
2022-07-25T12:50:11.589Z,46.12
2022-07-25T12:52:38.686Z,44.34
2022-07-25T12:55:10.704Z,43.96
2022-07-25T12:57:38.705Z,43.83
2022-07-25T13:00:08.377Z,43.57
2022-07-25T13:02:35.700Z,44.24
2022-07-25T13:05:02.950Z,44.42
2022-07-25T13:07:30.803Z,44.14
2022-07-25T13:09:57.819Z,43.99
2022-07-25T13:12:25.267Z,42.68
2022-07-25T13:14:52.363Z,42.86
2022-07-25T13:17:22.479Z,43.13
2022-07-25T13:19:54.420Z,43.23
2022-07-25T13:22:21.488Z,42.09
2022-07-25T13:24:48.574Z,42.49
2022-07-25T13:27:18.961Z,43.32
2022-07-25T13:29:47.217Z,42.23
2022-07-25T13:32:14.418Z,41.82
2022-07-25T13:34:41.554Z,43.59
2022-07-25T13:37:08.574Z,42.20
2022-07-25T13:39:35.945Z,41.71
2022-07-25T13:42:03.474Z,42.17
2022-07-25T13:44:30.518Z,45.83
2022-07-25T13:46:58.783Z,43.65
2022-07-25T13:49:26.151Z,43.78
2022-07-25T13:51:53.449Z,43.63
2022-07-25T13:54:21.249Z,43.11
2022-07-25T13:56:48.333Z,47.08
2022-07-25T13:59:21.005Z,44.15
2022-07-25T14:01:48.974Z,44.38
2022-07-25T14:04:16.204Z,44.37
2022-07-25T14:06:43.584Z,44.25
2022-07-25T14:09:11.085Z,44.57
2022-07-25T14:11:38.320Z,44.42
2022-07-25T14:14:05.276Z,43.93
2022-07-25T14:16:33.853Z,43.69
2022-07-25T14:19:02.280Z,44.76
2022-07-25T14:21:30.221Z,44.63
2022-07-25T14:23:57.342Z,44.55
2022-07-25T14:26:24.570Z,44.54
2022-07-25T14:28:51.640Z,47.70
2022-07-25T14:31:18.736Z,45.04
2022-07-25T14:33:45.862Z,45.00
2022-07-25T14:36:12.976Z,44.50
2022-07-25T14:38:39.957Z,44.68
2022-07-25T14:41:12.340Z,44.47
2022-07-25T14:43:41.192Z,45.12
2022-07-25T14:46:09.174Z,45.88
2022-07-25T14:48:38.791Z,45.56
2022-07-25T14:51:07.030Z,45.13
2022-07-25T14:53:35.305Z,45.19
2022-07-25T14:56:04.874Z,44.61
2022-07-25T14:58:33.648Z,45.22
2022-07-25T15:01:01.276Z,45.58
2022-07-25T15:03:28.345Z,45.44
2022-07-25T15:05:55.428Z,47.69
2022-07-25T15:08:23.081Z,46.93
2022-07-25T15:10:50.220Z,47.75
2022-07-25T15:13:33.187Z,47.56
2022-07-25T15:16:01.397Z,49.01
2022-07-25T15:18:29.138Z,49.09
2022-07-25T15:20:56.200Z,50.50
2022-07-25T15:23:25.212Z,52.04
2022-07-25T15:26:02.925Z,53.82
2022-07-25T15:28:35.641Z,53.66
2022-07-25T15:31:03.529Z,55.47
2022-07-25T15:33:31.495Z,55.82
2022-07-25T15:35:58.809Z,56.40
2022-07-25T15:38:26.025Z,58.65
2022-07-25T15:40:53.122Z,59.56
2022-07-25T15:43:20.214Z,60.81
2022-07-25T15:45:47.263Z,62.56
2022-07-25T15:48:16.353Z,62.11
2022-07-25T15:50:46.096Z,62.11
2022-07-25T15:53:13.982Z,63.87
2022-07-25T15:55:42.396Z,64.77
2022-07-25T15:58:10.439Z,65.65
2022-07-25T16:00:38.709Z,65.55
2022-07-25T16:03:06.241Z,66.21
2022-07-25T16:05:34.168Z,66.39
2022-07-25T16:08:02.261Z,67.54
2022-07-25T16:10:31.740Z,67.99
2022-07-25T16:12:59.437Z,68.53
2022-07-25T16:15:26.905Z,68.39
2022-07-25T16:18:01.781Z,68.59
2022-07-25T16:20:31.671Z,67.64
2022-07-25T16:22:59.478Z,67.25
2022-07-25T16:25:28.701Z,66.71
2022-07-25T16:27:56.834Z,67.87
2022-07-25T16:30:24.069Z,68.26
2022-07-25T16:32:51.202Z,68.18
2022-07-25T16:35:18.229Z,68.36
2022-07-25T16:37:45.331Z,69.24
2022-07-25T16:40:12.652Z,69.95
2022-07-25T16:42:40.074Z,69.78
2022-07-25T16:45:07.642Z,70.09
2022-07-25T16:47:34.840Z,70.10
2022-07-25T16:50:02.384Z,70.06
2022-07-25T16:52:30.219Z,70.41
2022-07-25T16:54:57.221Z,71.05
2022-07-25T16:57:25.151Z,71.18
2022-07-25T16:59:55.535Z,71.01
2022-07-25T17:02:27.508Z,71.59
2022-07-25T17:04:56.975Z,71.31
2022-07-25T17:07:24.708Z,71.61
2022-07-25T17:09:52.198Z,71.74
2022-07-25T17:12:19.584Z,72.25
2022-07-25T17:14:46.673Z,71.98
2022-07-25T17:17:13.958Z,72.05
2022-07-25T17:19:41.080Z,72.13
2022-07-25T17:22:09.566Z,72.69
2022-07-25T17:24:37.009Z,73.17
2022-07-25T17:27:04.490Z,73.44
2022-07-25T17:29:31.783Z,72.70
2022-07-25T17:31:58.897Z,72.90
2022-07-25T17:34:26.990Z,73.34
2022-07-25T17:36:55.148Z,73.28
2022-07-25T17:39:22.194Z,73.21
2022-07-25T17:41:49.329Z,73.18
2022-07-25T17:44:16.749Z,73.48
2022-07-25T17:46:45.084Z,73.94
2022-07-25T17:49:12.199Z,74.11
2022-07-25T17:51:39.331Z,74.46
2022-07-25T17:54:06.686Z,73.83
2022-07-25T17:56:34.103Z,74.53
2022-07-25T17:59:02.058Z,74.55
2022-07-25T18:01:29.507Z,74.57
2022-07-25T18:03:57.187Z,75.06
2022-07-25T18:06:29.550Z,75.85
2022-07-25T18:08:57.787Z,75.32
2022-07-25T18:11:25.156Z,75.56
2022-07-25T18:13:52.232Z,75.52
2022-07-25T18:16:19.369Z,75.86
2022-07-25T18:18:46.553Z,76.05
2022-07-25T18:21:13.508Z,76.16
2022-07-25T18:23:40.533Z,76.37
2022-07-25T18:26:09.272Z,76.18
2022-07-25T18:28:36.432Z,76.79
2022-07-25T18:31:04.643Z,77.04
2022-07-25T18:33:31.809Z,76.89
2022-07-25T18:36:01.778Z,77.11
2022-07-25T18:38:31.646Z,77.08
2022-07-25T18:41:19.282Z,77.06
2022-07-25T18:43:45.757Z,77.04
2022-07-25T18:46:15.240Z,76.82
2022-07-25T18:48:44.525Z,76.78
2022-07-25T18:51:12.056Z,77.20
2022-07-25T18:53:39.089Z,77.35
2022-07-25T18:56:06.363Z,77.07
2022-07-25T18:58:33.631Z,77.17
2022-07-25T19:01:03.059Z,77.07
2022-07-25T19:03:32.804Z,77.32
2022-07-25T19:06:03.396Z,77.12
2022-07-25T19:08:31.135Z,77.52
2022-07-25T19:10:58.168Z,77.37
2022-07-25T19:13:47.556Z,77.63
2022-07-25T19:16:12.373Z,77.39
2022-07-25T19:18:39.883Z,77.44
2022-07-25T19:23:38.079Z,77.11
2022-07-25T19:26:05.552Z,77.31
2022-07-25T19:28:32.528Z,77.14
2022-07-25T19:30:59.570Z,77.48
2022-07-25T19:33:34.744Z,77.17
2022-07-25T19:36:04.324Z,77.00
2022-07-25T19:38:31.630Z,76.78
2022-07-25T19:40:59.182Z,76.46
2022-07-25T19:43:26.417Z,77.22
2022-07-25T19:45:53.682Z,76.41
2022-07-25T19:48:24.010Z,76.46
2022-07-25T19:50:52.566Z,76.51
2022-07-25T19:53:19.632Z,76.57
2022-07-25T19:55:46.674Z,75.93
2022-07-25T19:58:13.602Z,76.30
2022-07-25T20:00:40.665Z,76.78
2022-07-25T20:03:07.872Z,76.80
2022-07-25T20:05:34.979Z,76.94
2022-07-25T20:08:02.024Z,76.81
2022-07-25T20:10:29.177Z,76.23
2022-07-25T20:13:00.964Z,76.12
2022-07-25T20:15:28.824Z,76.25
2022-07-25T20:17:56.933Z,76.35
2022-07-25T20:20:24.990Z,76.28
2022-07-25T20:22:52.891Z,76.36
2022-07-25T20:25:19.847Z,76.03
2022-07-25T20:27:49.738Z,76.00
2022-07-25T20:30:17.437Z,75.94
2022-07-25T20:32:44.445Z,76.15
2022-07-25T20:35:11.465Z,76.25
2022-07-25T20:37:38.493Z,76.38
2022-07-25T20:40:06.879Z,76.35
2022-07-25T20:42:36.813Z,76.18
2022-07-25T20:45:05.852Z,75.95
2022-07-25T20:47:32.900Z,76.00
2022-07-25T20:50:00.534Z,75.74
2022-07-25T20:52:31.310Z,75.54
2022-07-25T20:54:58.261Z,75.83
2022-07-25T20:57:25.262Z,75.72
2022-07-25T20:59:52.333Z,76.00
2022-07-25T21:02:19.382Z,76.22
2022-07-25T21:04:48.653Z,75.56
2022-07-25T21:07:16.938Z,75.57
2022-07-25T21:09:44.480Z,74.95
2022-07-25T21:12:11.558Z,75.14
2022-07-25T21:14:38.668Z,75.43
2022-07-25T21:17:05.953Z,75.53
2022-07-25T21:19:33.149Z,75.78
2022-07-25T21:22:00.090Z,75.47
2022-07-25T21:24:27.069Z,75.76
2022-07-25T21:26:54.023Z,75.18
2022-07-25T21:29:21.138Z,74.92
2022-07-25T21:31:48.416Z,75.53
2022-07-25T21:34:15.538Z,75.24
2022-07-25T21:36:42.600Z,75.39
2022-07-25T21:39:10.099Z,75.29
2022-07-25T21:41:37.302Z,75.24
2022-07-25T21:44:04.445Z,74.61
2022-07-25T21:46:31.771Z,75.03
2022-07-25T21:49:17.663Z,75.01
2022-07-25T21:52:04.819Z,75.16
2022-07-25T21:54:32.124Z,75.52
2022-07-25T21:56:59.125Z,75.28
2022-07-25T21:59:26.146Z,74.85
2022-07-25T22:01:53.114Z,75.11
2022-07-25T22:04:21.572Z,75.12
2022-07-25T22:06:48.695Z,75.15
2022-07-25T22:09:15.767Z,75.19
2022-07-25T22:11:46.491Z,75.17
2022-07-25T22:14:14.569Z,74.68
2022-07-25T22:16:42.597Z,74.63
2022-07-25T22:19:10.003Z,74.74
2022-07-25T22:21:37.199Z,74.76
2022-07-25T22:24:04.384Z,74.69
2022-07-25T22:26:31.369Z,74.09
2022-07-25T22:28:58.498Z,74.38
2022-07-25T22:31:25.582Z,74.25
2022-07-25T22:33:52.687Z,74.56
2022-07-25T22:36:19.780Z,74.96
2022-07-25T22:38:46.756Z,74.96
2022-07-25T22:41:13.832Z,74.98
2022-07-25T22:43:53.153Z,75.16
2022-07-25T22:46:28.579Z,74.91
2022-07-25T22:48:56.151Z,74.88
2022-07-25T22:51:23.602Z,75.11
2022-07-25T22:53:50.913Z,75.29
2022-07-25T22:56:18.036Z,75.32
2022-07-25T22:58:45.741Z,75.67
2022-07-25T23:01:17.814Z,75.60
2022-07-25T23:03:45.602Z,75.65
2022-07-25T23:06:13.442Z,75.67
2022-07-25T23:08:40.936Z,75.53
2022-07-25T23:11:08.594Z,75.64
2022-07-25T23:13:36.349Z,75.59
2022-07-25T23:16:04.154Z,75.59
2022-07-25T23:18:32.189Z,75.76
2022-07-25T23:20:59.424Z,76.09
2022-07-25T23:23:26.437Z,76.01
2022-07-25T23:25:53.454Z,76.25
2022-07-25T23:28:21.024Z,75.95
2022-07-25T23:30:48.107Z,75.69
2022-07-25T23:33:15.083Z,75.81
2022-07-25T23:35:42.413Z,75.66
2022-07-25T23:38:10.913Z,76.22
2022-07-25T23:40:37.948Z,76.13
2022-07-25T23:43:05.127Z,75.99
2022-07-25T23:45:32.849Z,75.68
2022-07-25T23:47:59.878Z,76.08
2022-07-25T23:50:26.940Z,76.13
2022-07-25T23:52:53.893Z,76.16
2022-07-25T23:55:20.887Z,76.25
2022-07-25T23:57:47.934Z,75.95
